Time;durP1;ratioP1;P1;durP2;ratioP2;P2;SDS_P1;SDS_P2;PMS_P1;PMS_P2;Temp;Humidity;BMP_temperature;BMP_pressure;BME280_temperature;BME280_humidity;BME280_pressure;Samples;Min_cycle;Max_cycle;Signal;HPM_P1;HPM_P2
2023/07/06 00:02:22;;;;;;;9.25;7.60;;;;;;;12.40;94.39;101339.00;5006525;28;20041;-81
2023/07/06 00:04:49;;;;;;;9.50;7.50;;;;;;;12.34;94.50;101333.56;5008062;28;20477;-81
2023/07/06 00:07:20;;;;;;;11.00;7.38;;;;;;;12.31;94.90;101333.97;5007591;28;20108;-81
2023/07/06 00:09:46;;;;;;;8.90;7.40;;;;;;;12.29;94.69;101339.53;5042045;28;20028;-81
2023/07/06 00:12:12;;;;;;;8.32;7.47;;;;;;;12.23;94.87;101338.47;5008142;28;20034;-81
2023/07/06 00:14:38;;;;;;;9.23;7.22;;;;;;;12.18;94.70;101340.09;5009036;28;20475;-82
2023/07/06 00:17:08;;;;;;;8.10;7.13;;;;;;;12.19;95.25;101344.47;5008648;28;20033;-81
2023/07/06 00:19:34;;;;;;;8.55;7.57;;;;;;;12.17;95.35;101341.13;5033202;28;20120;-81
2023/07/06 00:22:00;;;;;;;8.50;7.45;;;;;;;12.13;95.54;101343.38;5017518;28;20041;-81
2023/07/06 00:24:26;;;;;;;9.77;7.63;;;;;;;12.09;95.64;101344.78;5008942;28;20022;-81
2023/07/06 00:26:52;;;;;;;9.88;7.85;;;;;;;12.09;95.60;101342.09;5021763;28;20086;-83
2023/07/06 00:29:17;;;;;;;8.85;7.80;;;;;;;12.09;95.58;101347.50;5009994;28;20026;-81
2023/07/06 00:31:51;;;;;;;10.80;8.70;;;;;;;11.97;96.04;101348.00;5022134;28;20037;-81
2023/07/06 00:34:18;;;;;;;9.95;8.23;;;;;;;12.02;96.58;101352.84;5044610;28;20115;-81
2023/07/06 00:36:43;;;;;;;12.18;8.30;;;;;;;12.04;95.97;101352.63;5007847;28;20057;-81
2023/07/06 00:39:12;;;;;;;10.40;8.57;;;;;;;12.01;96.01;101353.00;5021383;28;20058;-81
2023/07/06 00:41:38;;;;;;;10.18;8.98;;;;;;;12.01;96.23;101355.72;5016921;28;20028;-81
2023/07/06 00:44:04;;;;;;;10.65;8.45;;;;;;;12.01;96.30;101355.72;5008757;28;20030;-81
2023/07/06 00:46:36;;;;;;;10.40;8.73;;;;;;;12.02;96.57;101362.78;5040459;28;20046;-81
2023/07/06 00:49:02;;;;;;;11.13;8.70;;;;;;;12.02;96.65;101362.78;4992200;28;20054;-81
2023/07/06 00:51:32;;;;;;;11.48;8.88;;;;;;;12.02;96.52;101351.97;5013049;28;20030;-81
2023/07/06 00:54:09;;;;;;;12.80;9.07;;;;;;;11.97;96.23;101357.94;4994555;28;20045;-81
2023/07/06 00:56:40;;;;;;;10.48;8.57;;;;;;;11.97;96.75;101356.09;4999904;28;20049;-81
2023/07/06 00:59:06;;;;;;;11.13;8.90;;;;;;;11.97;96.49;101355.25;5010880;28;20481;-81
2023/07/06 01:01:36;;;;;;;9.68;8.65;;;;;;;11.97;96.22;101350.69;4981357;28;20050;-81
2023/07/06 01:04:03;;;;;;;11.52;9.05;;;;;;;12.00;96.46;101359.47;4978597;28;20049;-81
2023/07/06 01:06:34;;;;;;;10.35;9.07;;;;;;;11.94;96.56;101361.88;5008558;28;20399;-81
2023/07/06 01:08:59;;;;;;;13.52;9.73;;;;;;;11.96;96.62;101356.25;4976023;28;20112;-81
2023/07/06 01:11:25;;;;;;;12.38;9.85;;;;;;;11.93;96.71;101359.34;4975102;28;20029;-81
2023/07/06 01:13:51;;;;;;;12.52;9.48;;;;;;;11.94;96.87;101358.31;5003841;28;20030;-81
2023/07/06 01:16:42;;;;;;;11.25;9.40;;;;;;;11.86;96.87;101361.16;5006869;28;20030;-81
2023/07/06 01:19:07;;;;;;;13.10;9.40;;;;;;;11.93;97.13;101370.13;5000849;28;20132;-83
2023/07/06 01:21:44;;;;;;;13.93;9.77;;;;;;;11.89;96.90;101358.91;5040926;28;20140;-80
2023/07/06 01:24:31;;;;;;;12.30;9.63;;;;;;;11.92;97.36;101363.06;5024760;28;20112;-81
2023/07/06 01:27:18;;;;;;;11.27;9.15;;;;;;;11.98;96.69;101362.31;5017193;28;20073;-80
2023/07/06 01:30:04;;;;;;;12.65;9.75;;;;;;;12.06;96.77;101364.06;5000204;28;20038;-81
2023/07/06 01:32:32;;;;;;;12.50;9.30;;;;;;;12.06;96.44;101362.22;4989889;28;20046;-80
2023/07/06 01:35:07;;;;;;;12.32;8.77;;;;;;;12.12;96.29;101357.91;4976024;28;20026;-80
2023/07/06 01:37:36;;;;;;;13.38;9.32;;;;;;;12.16;95.66;101361.88;4975603;28;20176;-81
2023/07/06 01:40:09;;;;;;;12.27;9.73;;;;;;;12.14;95.33;101361.25;4972591;28;20034;-80
2023/07/06 01:42:35;;;;;;;13.10;9.15;;;;;;;12.15;95.49;101354.81;5009973;28;20033;-82
2023/07/06 01:45:15;;;;;;;11.52;9.73;;;;;;;12.09;94.94;101360.97;5007643;28;20022;-82
2023/07/06 01:47:45;;;;;;;10.63;9.07;;;;;;;12.13;95.53;101364.97;4990277;28;20120;-82
2023/07/06 01:50:12;;;;;;;11.40;9.13;;;;;;;12.18;94.79;101367.91;4988744;28;20457;-83
2023/07/06 01:52:52;;;;;;;10.48;8.68;;;;;;;12.18;94.54;101373.28;4990618;28;20030;-82
2023/07/06 01:55:25;;;;;;;10.88;9.10;;;;;;;12.18;94.43;101375.19;4990649;28;20029;-80
2023/07/06 01:58:00;;;;;;;11.13;9.02;;;;;;;12.13;94.78;101365.78;4973924;28;20469;-81
2023/07/06 02:00:25;;;;;;;12.85;8.68;;;;;;;12.09;94.79;101369.06;5039486;28;20036;-81
2023/07/06 02:02:52;;;;;;;11.95;9.43;;;;;;;12.16;94.84;101366.44;4973514;28;20100;-81
2023/07/06 02:05:19;;;;;;;11.98;9.45;;;;;;;12.15;94.62;101365.63;4974306;28;20033;-81
2023/07/06 02:07:44;;;;;;;12.70;8.82;;;;;;;12.10;94.28;101368.88;4982265;28;20086;-81
2023/07/06 02:10:14;;;;;;;12.90;9.88;;;;;;;12.09;94.45;101375.31;4999210;28;20014;-80
2023/07/06 02:12:40;;;;;;;11.55;8.50;;;;;;;12.02;94.11;101357.38;5007461;28;20038;-81
2023/07/06 02:15:08;;;;;;;12.73;9.02;;;;;;;12.09;93.86;101364.50;5005501;28;20496;-80
2023/07/06 02:17:33;;;;;;;12.27;9.20;;;;;;;12.08;94.01;101365.56;5006230;28;20026;-81
2023/07/06 02:19:59;;;;;;;11.18;8.70;;;;;;;11.95;93.97;101363.53;5042822;28;20413;-81
2023/07/06 02:22:27;;;;;;;10.88;8.98;;;;;;;11.97;94.16;101358.78;5006985;28;20026;-81
2023/07/06 02:24:52;;;;;;;11.60;8.82;;;;;;;11.91;94.03;101358.72;5003998;28;20037;-81
2023/07/06 02:27:19;;;;;;;12.38;9.07;;;;;;;11.88;94.05;101365.31;5005184;28;20385;-81
2023/07/06 02:29:44;;;;;;;11.43;8.77;;;;;;;11.80;94.19;101370.88;5009756;28;20099;-81
2023/07/06 02:32:10;;;;;;;12.10;8.93;;;;;;;11.76;93.97;101362.31;5055086;28;20028;-81
2023/07/06 02:34:36;;;;;;;13.10;9.18;;;;;;;11.72;94.56;101365.59;5020727;28;20034;-80
2023/07/06 02:37:01;;;;;;;10.90;9.20;;;;;;;11.70;94.34;101364.94;5011820;28;20022;-81
2023/07/06 02:39:27;;;;;;;11.35;8.63;;;;;;;11.62;94.68;101369.44;5004981;28;20052;-81
2023/07/06 02:41:56;;;;;;;12.23;8.73;;;;;;;11.63;94.40;101370.25;5007275;28;20042;-81
2023/07/06 02:44:21;;;;;;;12.25;8.70;;;;;;;11.53;94.67;101365.19;5011328;28;20014;-81
2023/07/06 02:46:47;;;;;;;10.60;8.48;;;;;;;11.54;94.87;101369.56;5009246;28;20033;-81
2023/07/06 02:49:13;;;;;;;12.02;8.00;;;;;;;11.59;94.56;101363.56;5008979;28;20021;-80
2023/07/06 02:51:40;;;;;;;13.07;8.48;;;;;;;11.59;94.21;101360.88;5008207;28;20038;-81
2023/07/06 02:54:06;;;;;;;11.63;7.93;;;;;;;11.52;93.97;101364.38;5009446;28;21002;-81
2023/07/06 02:56:32;;;;;;;11.45;7.65;;;;;;;11.61;93.79;101366.91;5007470;28;20098;-81
2023/07/06 02:58:57;;;;;;;13.63;8.55;;;;;;;11.64;93.84;101367.41;5043861;28;20033;-81
2023/07/06 03:01:23;;;;;;;10.93;7.90;;;;;;;11.60;94.10;101371.50;5042562;28;20045;-80
2023/07/06 03:03:51;;;;;;;11.20;8.07;;;;;;;11.62;93.87;101374.84;5043754;28;20037;-81
2023/07/06 03:06:17;;;;;;;11.57;7.80;;;;;;;11.64;93.51;101366.53;4998585;28;20029;-80
2023/07/06 03:08:43;;;;;;;11.27;7.90;;;;;;;11.68;93.10;101376.75;5041952;28;20038;-81
2023/07/06 03:11:10;;;;;;;10.50;7.63;;;;;;;11.66;92.97;101370.72;5009632;28;20450;-81
2023/07/06 03:13:36;;;;;;;11.57;7.32;;;;;;;11.67;92.94;101369.69;5034354;28;20030;-81
2023/07/06 03:16:03;;;;;;;9.57;7.47;;;;;;;11.62;93.05;101374.00;5009936;28;20022;-81
2023/07/06 03:18:28;;;;;;;12.32;7.25;;;;;;;11.67;92.68;101374.25;5009281;28;20380;-81
2023/07/06 03:20:55;;;;;;;9.50;7.05;;;;;;;11.70;92.32;101383.81;5009330;28;20026;-81
2023/07/06 03:23:21;;;;;;;9.77;7.00;;;;;;;11.63;92.58;101379.22;5009572;28;20026;-81
2023/07/06 03:25:51;;;;;;;8.65;7.32;;;;;;;11.64;92.58;101378.19;5009565;28;20040;-81
2023/07/06 03:28:20;;;;;;;10.20;7.32;;;;;;;11.65;92.45;101382.53;5008761;28;20500;-81
2023/07/06 03:30:46;;;;;;;10.68;6.47;;;;;;;11.71;91.82;101386.34;5008515;28;20033;-81
2023/07/06 03:33:11;;;;;;;12.90;7.00;;;;;;;11.75;91.73;101384.91;4997812;28;20079;-81
2023/07/06 03:35:40;;;;;;;7.15;6.35;;;;;;;11.77;91.48;101390.13;5009892;28;20034;-81
2023/07/06 03:38:06;;;;;;;14.05;6.78;;;;;;;11.78;91.05;101389.09;5008191;28;20079;-81
2023/07/06 03:40:31;;;;;;;11.68;6.88;;;;;;;11.80;90.94;101387.06;5006835;28;20034;-81
2023/07/06 03:42:57;;;;;;;7.60;6.50;;;;;;;11.76;90.59;101378.50;5008208;28;20304;-81
2023/07/06 03:45:23;;;;;;;12.30;6.70;;;;;;;11.78;90.65;101386.41;5007703;28;20588;-81
2023/07/06 03:47:50;;;;;;;9.30;6.28;;;;;;;11.81;90.82;101386.03;5032775;28;20043;-79
2023/07/06 03:50:17;;;;;;;8.80;6.50;;;;;;;11.80;90.63;101387.06;5018551;28;20114;-78
2023/07/06 03:52:43;;;;;;;10.00;6.47;;;;;;;11.78;90.35;101389.09;5007605;28;20034;-79
2023/07/06 03:55:18;;;;;;;14.10;6.22;;;;;;;11.72;90.76;101381.75;5008953;28;20036;-79
2023/07/06 03:57:45;;;;;;;9.30;6.40;;;;;;;11.77;90.87;101385.56;5000237;28;20160;-79
2023/07/06 04:00:20;;;;;;;10.07;6.25;;;;;;;11.79;90.30;101396.16;5009366;28;20053;-77
2023/07/06 04:02:49;;;;;;;7.45;6.10;;;;;;;11.78;90.36;101399.91;5004993;28;20037;-78
2023/07/06 04:05:17;;;;;;;8.20;5.65;;;;;;;11.77;90.33;101392.81;5007897;28;20048;-78
2023/07/06 04:07:45;;;;;;;9.88;6.63;;;;;;;11.83;89.79;101400.97;5007985;28;20374;-80
2023/07/06 04:10:11;;;;;;;8.63;6.05;;;;;;;11.81;89.72;101399.50;5005900;28;20097;-79
2023/07/06 04:12:37;;;;;;;12.45;5.93;;;;;;;11.82;89.61;101398.50;5008057;28;20114;-78
2023/07/06 04:15:04;;;;;;;7.32;5.88;;;;;;;11.74;90.01;101399.41;5040052;28;20034;-78
2023/07/06 04:17:31;;;;;;;11.20;7.13;;;;;;;11.78;89.99;101403.41;4989567;28;20484;-78
2023/07/06 04:19:56;;;;;;;7.20;5.90;;;;;;;11.83;89.82;101408.22;5007313;28;20041;-78
2023/07/06 04:22:22;;;;;;;7.32;5.65;;;;;;;11.87;89.00;101403.31;5010496;28;20022;-78
2023/07/06 04:24:47;;;;;;;8.43;6.13;;;;;;;11.80;89.91;101397.84;5026741;28;20037;-78
2023/07/06 04:27:13;;;;;;;8.65;5.63;;;;;;;11.80;89.40;101403.25;5008442;28;20037;-79
2023/07/06 04:29:39;;;;;;;8.57;5.93;;;;;;;11.84;89.61;101399.09;5008516;28;20044;-80
2023/07/06 04:32:06;;;;;;;6.70;6.00;;;;;;;11.90;89.14;101402.94;5008960;28;20030;-79
2023/07/06 04:34:31;;;;;;;9.40;5.47;;;;;;;11.92;89.14;101406.25;5008203;28;20033;-78
2023/07/06 04:36:57;;;;;;;7.88;5.55;;;;;;;11.98;88.94;101417.16;5039024;28;20087;-77
2023/07/06 04:39:22;;;;;;;10.35;5.47;;;;;;;11.92;89.24;101420.59;5007146;28;20029;-78
2023/07/06 04:41:48;;;;;;;6.45;5.10;;;;;;;12.03;88.83;101415.72;5009517;28;20033;-80
2023/07/06 04:44:18;;;;;;;8.07;5.43;;;;;;;11.97;89.11;101420.00;5028346;28;20181;-78
2023/07/06 04:46:43;;;;;;;10.38;5.40;;;;;;;12.05;88.71;101425.31;5021128;28;20489;-78
2023/07/06 04:49:08;;;;;;;8.65;5.15;;;;;;;12.10;87.77;101424.72;5071641;28;20022;-78
2023/07/06 04:51:35;;;;;;;6.25;4.47;;;;;;;12.17;88.08;101424.78;5033465;28;20055;-78
2023/07/06 04:54:02;;;;;;;6.85;5.05;;;;;;;12.25;87.37;101422.78;5020395;28;20067;-80
2023/07/06 04:56:27;;;;;;;9.85;4.97;;;;;;;12.31;87.07;101423.06;5009820;28;20124;-78
2023/07/06 04:58:53;;;;;;;9.10;5.05;;;;;;;12.36;86.55;101425.97;5009412;28;20037;-78
2023/07/06 05:01:19;;;;;;;11.60;5.30;;;;;;;12.37;86.22;101431.19;5008581;28;20042;-78
2023/07/06 05:03:45;;;;;;;10.00;4.95;;;;;;;12.42;86.38;101427.91;5018567;28;20033;-79
2023/07/06 05:06:12;;;;;;;6.97;4.70;;;;;;;12.40;85.91;101428.13;5024960;28;20071;-79
2023/07/06 05:08:38;;;;;;;8.50;5.47;;;;;;;12.47;85.95;101438.13;5043077;28;20034;-78
2023/07/06 05:11:04;;;;;;;6.78;4.53;;;;;;;12.49;85.79;101436.06;5007048;28;20037;-78
2023/07/06 05:13:30;;;;;;;9.93;4.55;;;;;;;12.56;85.31;101434.25;5006162;28;20476;-78
2023/07/06 05:15:55;;;;;;;7.72;4.57;;;;;;;12.62;85.04;101433.47;5007287;28;20033;-79
2023/07/06 05:18:21;;;;;;;9.45;4.78;;;;;;;12.59;85.59;101429.28;5007089;28;20025;-79
2023/07/06 05:20:49;;;;;;;6.70;4.40;;;;;;;12.71;85.05;101428.75;5006953;28;20038;-78
2023/07/06 05:23:16;;;;;;;8.50;4.30;;;;;;;12.80;84.88;101430.28;5009293;28;20034;-79
2023/07/06 05:25:41;;;;;;;9.10;4.43;;;;;;;12.85;84.16;101432.38;5040830;28;20111;-79
2023/07/06 05:28:10;;;;;;;8.18;4.20;;;;;;;12.86;84.18;101436.75;5015958;28;20025;-79
2023/07/06 05:30:36;;;;;;;5.05;3.92;;;;;;;13.09;82.94;101443.75;5007889;28;20029;-79
2023/07/06 05:33:01;;;;;;;4.65;4.07;;;;;;;13.14;83.30;101444.00;5007152;28;20026;-79
2023/07/06 05:35:27;;;;;;;6.38;3.80;;;;;;;13.25;83.21;101426.34;5009705;28;20031;-79
2023/07/06 05:37:54;;;;;;;7.63;4.25;;;;;;;13.32;82.40;101429.94;5008040;28;20056;-79
2023/07/06 05:40:19;;;;;;;9.18;4.43;;;;;;;13.36;81.99;101439.31;5007270;28;20026;-79
2023/07/06 05:42:48;;;;;;;7.85;4.47;;;;;;;13.27;81.95;101441.38;5033562;28;20436;-79
2023/07/06 05:45:14;;;;;;;7.30;4.72;;;;;;;13.34;81.64;101446.81;5006831;28;20100;-79
2023/07/06 05:47:39;;;;;;;6.70;4.05;;;;;;;13.26;81.47;101452.38;5006533;28;20040;-79
2023/07/06 05:50:05;;;;;;;8.18;4.60;;;;;;;13.21;81.67;101458.38;5006084;28;20026;-78
2023/07/06 05:52:31;;;;;;;7.07;4.47;;;;;;;13.23;81.88;101452.78;5004640;28;20048;-79
2023/07/06 05:54:56;;;;;;;8.60;3.95;;;;;;;13.09;82.27;101460.81;5042973;28;20028;-79
2023/07/06 05:57:22;;;;;;;7.82;4.20;;;;;;;12.88;83.49;101457.13;5021126;28;20030;-79
2023/07/06 05:59:48;;;;;;;10.77;4.55;;;;;;;13.07;83.37;101468.28;5018091;28;20030;-78
2023/07/06 06:02:17;;;;;;;9.45;4.65;;;;;;;13.01;83.21;101467.19;5004444;28;20083;-79
2023/07/06 06:04:43;;;;;;;8.10;4.47;;;;;;;13.19;83.28;101471.25;5007409;28;20026;-79
2023/07/06 06:07:09;;;;;;;9.70;4.22;;;;;;;13.35;81.99;101468.22;5006786;28;20096;-79
2023/07/06 06:09:35;;;;;;;6.38;4.05;;;;;;;13.37;82.03;101475.31;5003930;28;20053;-79
2023/07/06 06:12:04;;;;;;;7.78;4.28;;;;;;;13.29;81.77;101468.19;5006480;28;20069;-79
2023/07/06 06:14:30;;;;;;;8.38;4.38;;;;;;;13.44;81.92;101474.31;5019503;28;20043;-78
2023/07/06 06:16:56;;;;;;;8.82;4.20;;;;;;;13.52;81.28;101475.22;5028246;28;20069;-80
2023/07/06 06:19:21;;;;;;;7.60;4.55;;;;;;;13.60;81.32;101483.13;5005881;28;20681;-79
2023/07/06 06:21:49;;;;;;;12.13;4.90;;;;;;;13.61;80.66;101479.41;5028417;28;20107;-79
2023/07/06 06:24:14;;;;;;;7.95;4.63;;;;;;;13.54;80.48;101489.38;5031316;28;20030;-78
2023/07/06 06:26:42;;;;;;;8.48;4.60;;;;;;;13.60;80.98;101485.84;5022438;28;20026;-79
2023/07/06 06:29:09;;;;;;;8.88;4.50;;;;;;;13.94;79.90;101495.75;5010698;28;20045;-79
2023/07/06 06:31:35;;;;;;;6.93;4.53;;;;;;;14.23;79.36;101496.44;5009216;28;20030;-78
2023/07/06 06:34:01;;;;;;;10.23;4.07;;;;;;;15.40;75.03;101499.75;4990993;28;20389;-79
2023/07/06 06:36:26;;;;;;;9.50;4.95;;;;;;;16.05;71.44;101502.44;5010517;28;20030;-79
2023/07/06 06:38:52;;;;;;;12.50;4.90;;;;;;;16.51;69.98;101505.03;5006862;28;20034;-79
2023/07/06 06:41:21;;;;;;;11.02;4.97;;;;;;;16.59;69.45;101510.22;5011931;28;20114;-84
2023/07/06 06:43:47;;;;;;;10.90;4.30;;;;;;;17.30;67.69;101511.91;5010916;28;20057;-84
2023/07/06 06:46:16;;;;;;;7.80;4.68;;;;;;;18.30;63.20;101509.81;5010078;28;20030;-90
2023/07/06 06:48:41;;;;;;;8.65;4.63;;;;;;;18.29;62.21;101509.00;5042739;28;20045;-79
2023/07/06 06:51:10;;;;;;;10.88;5.05;;;;;;;18.04;63.77;101520.06;5007982;28;20033;-83
2023/07/06 06:53:38;;;;;;;11.93;5.20;;;;;;;18.07;63.50;101519.59;5001079;28;20053;-82
2023/07/06 06:56:04;;;;;;;11.15;5.53;;;;;;;17.81;64.31;101516.13;5035991;28;20016;-88
2023/07/06 06:58:30;;;;;;;11.18;5.38;;;;;;;17.73;65.45;101520.00;5007229;28;20034;-82
2023/07/06 07:01:02;;;;;;;9.00;4.93;;;;;;;18.07;65.40;101526.91;5016823;28;20191;-84
2023/07/06 07:03:28;;;;;;;12.75;5.95;;;;;;;18.90;61.98;101513.47;5002926;28;20030;-83
2023/07/06 07:06:03;;;;;;;9.68;5.90;;;;;;;19.10;60.60;101524.06;5008705;28;20033;-83
2023/07/06 07:08:29;;;;;;;12.57;5.95;;;;;;;18.73;62.99;101529.69;5008349;28;20048;-83
2023/07/06 07:10:56;;;;;;;10.80;5.90;;;;;;;18.80;62.36;101522.25;5010924;28;20322;-83
2023/07/06 07:13:21;;;;;;;11.75;6.28;;;;;;;19.19;61.41;101522.66;5004208;28;20022;-83
2023/07/06 07:15:46;;;;;;;15.15;8.93;;;;;;;18.71;62.06;101529.94;5000575;28;20473;-85
2023/07/06 07:18:12;;;;;;;12.68;8.07;;;;;;;18.81;62.61;101526.63;5043682;28;20036;-85
2023/07/06 07:20:37;;;;;;;12.23;6.43;;;;;;;18.96;62.50;101530.81;5038655;28;20022;-83
2023/07/06 07:23:04;;;;;;;12.75;7.57;;;;;;;20.10;60.04;101536.81;5000818;28;20026;-83
2023/07/06 07:25:29;;;;;;;11.40;7.65;;;;;;;20.61;57.13;101536.91;5041708;28;20337;-85
2023/07/06 07:27:55;;;;;;;14.70;8.02;;;;;;;20.32;58.42;101539.66;5003998;28;20026;-83
2023/07/06 07:30:21;;;;;;;14.98;7.65;;;;;;;20.86;56.29;101535.66;5002382;28;20033;-80
2023/07/06 07:32:47;;;;;;;14.02;7.63;;;;;;;19.66;60.39;101538.13;5007879;28;20033;-79
2023/07/06 07:35:13;;;;;;;13.73;8.55;;;;;;;18.83;62.65;101540.88;5003203;28;20033;-80
2023/07/06 07:37:38;;;;;;;12.60;8.70;;;;;;;19.17;61.71;101537.56;5046638;28;20034;-77
2023/07/06 07:40:05;;;;;;;15.30;8.98;;;;;;;18.83;63.03;101535.41;5056022;28;20089;-78
2023/07/06 07:42:30;;;;;;;16.65;9.13;;;;;;;18.74;63.15;101540.38;5008812;28;20029;-78
2023/07/06 07:44:57;;;;;;;15.98;8.52;;;;;;;18.29;64.86;101541.69;5017639;28;20607;-78
2023/07/06 07:47:24;;;;;;;16.30;8.70;;;;;;;18.74;63.91;101545.00;5001073;28;20106;-78
2023/07/06 07:49:49;;;;;;;18.20;9.88;;;;;;;18.29;65.12;101549.03;5025588;28;20093;-77
2023/07/06 07:52:15;;;;;;;15.18;9.13;;;;;;;18.92;63.08;101550.34;5007009;28;20590;-79
2023/07/06 07:54:42;;;;;;;13.13;8.80;;;;;;;19.20;62.59;101557.06;5003525;28;20034;-79
2023/07/06 07:57:07;;;;;;;12.55;8.02;;;;;;;20.21;60.42;101556.97;5007553;28;20453;-79
2023/07/06 07:59:33;;;;;;;13.32;8.75;;;;;;;19.88;60.04;101553.06;5036367;28;20024;-79
2023/07/06 08:01:58;;;;;;;16.98;8.77;;;;;;;19.39;61.74;101563.19;5013298;28;20373;-79
2023/07/06 08:04:24;;;;;;;10.70;8.07;;;;;;;19.73;60.65;101569.91;5000544;28;20025;-80
2023/07/06 08:06:50;;;;;;;13.65;8.77;;;;;;;19.09;63.05;101569.63;5009123;28;20030;-79
2023/07/06 08:09:16;;;;;;;13.60;8.82;;;;;;;19.03;63.69;101569.75;5008667;28;20026;-79
2023/07/06 08:11:46;;;;;;;16.30;10.05;;;;;;;17.84;67.45;101563.84;5008717;28;20030;-79
2023/07/06 08:14:12;;;;;;;15.50;9.60;;;;;;;18.09;66.75;101566.47;5053963;28;20393;-79
2023/07/06 08:16:40;;;;;;;16.00;10.32;;;;;;;18.17;65.72;101566.19;5030515;28;20036;-79
2023/07/06 08:19:06;;;;;;;16.55;9.70;;;;;;;18.06;66.10;101575.16;5010491;28;20033;-79
2023/07/06 08:21:32;;;;;;;16.45;10.35;;;;;;;17.71;67.64;101575.75;5020585;28;20030;-79
2023/07/06 08:23:58;;;;;;;14.48;10.13;;;;;;;18.62;64.78;101569.53;5027476;28;20025;-79
2023/07/06 08:26:31;;;;;;;13.55;9.35;;;;;;;19.96;60.27;101575.34;5013329;28;20026;-78
2023/07/06 08:28:56;;;;;;;17.20;9.77;;;;;;;19.75;61.20;101587.75;5009589;28;20064;-79
2023/07/06 08:31:22;;;;;;;16.27;10.20;;;;;;;18.15;66.31;101584.66;5004669;28;20462;-78
2023/07/06 08:33:48;;;;;;;13.43;9.18;;;;;;;18.92;63.59;101585.81;5005279;28;20018;-79
2023/07/06 08:36:15;;;;;;;15.38;9.23;;;;;;;19.08;62.29;101589.81;5007720;28;20109;-79
2023/07/06 08:38:43;;;;;;;14.68;10.73;;;;;;;18.66;64.86;101592.53;5004084;28;20037;-79
2023/07/06 08:41:30;;;;;;;17.85;10.13;;;;;;;18.61;65.87;101593.25;5001170;28;20030;-80
2023/07/06 08:43:58;;;;;;;13.15;9.15;;;;;;;19.28;62.94;101598.69;4969753;28;20234;-79
2023/07/06 08:46:24;;;;;;;17.95;10.38;;;;;;;18.82;64.17;101601.09;5004039;28;20036;-78
2023/07/06 08:48:53;;;;;;;16.60;9.93;;;;;;;19.24;61.56;101603.81;4987131;28;20033;-77
2023/07/06 08:51:23;;;;;;;13.63;9.10;;;;;;;19.89;59.71;101603.91;5041967;28;20037;-77
2023/07/06 08:53:57;;;;;;;13.95;9.65;;;;;;;20.43;58.24;101606.31;5005961;28;20022;-77
2023/07/06 08:56:24;;;;;;;14.75;9.20;;;;;;;20.46;59.29;101608.56;5007052;28;20479;-77
2023/07/06 08:58:50;;;;;;;14.35;9.07;;;;;;;20.88;57.29;101610.13;4999288;28;20365;-78
2023/07/06 09:01:17;;;;;;;14.70;10.60;;;;;;;20.18;59.34;101607.50;4988129;28;20056;-77
2023/07/06 09:03:48;;;;;;;17.75;10.73;;;;;;;19.29;62.53;101603.94;5018330;28;20026;-78
2023/07/06 09:06:18;;;;;;;15.32;10.45;;;;;;;19.38;61.40;101604.41;5012200;28;20086;-77
2023/07/06 09:08:45;;;;;;;16.35;10.77;;;;;;;18.10;66.19;101610.94;4997861;28;20376;-78
2023/07/06 09:11:14;;;;;;;18.33;10.00;;;;;;;18.73;64.30;101614.25;4993924;28;20477;-77
2023/07/06 09:13:54;;;;;;;15.23;10.10;;;;;;;19.31;62.62;101617.34;4987996;28;20457;-77
2023/07/06 09:16:20;;;;;;;16.50;10.57;;;;;;;19.80;60.20;101625.25;5005567;28;20049;-78
2023/07/06 09:18:55;;;;;;;15.00;9.77;;;;;;;19.40;62.44;101621.38;5018999;28;20026;-77
2023/07/06 09:21:26;;;;;;;15.77;10.00;;;;;;;20.25;58.88;101621.03;5004583;28;20573;-78
2023/07/06 09:23:52;;;;;;;14.18;9.10;;;;;;;20.30;59.07;101621.09;4998322;28;20022;-78
2023/07/06 09:26:33;;;;;;;15.30;9.95;;;;;;;20.31;58.86;101625.50;5034736;28;20115;-78
2023/07/06 09:29:35;;;;;;;16.83;11.02;;;;;;;18.86;63.22;101619.53;5019971;28;20026;-79
2023/07/06 09:32:10;;;;;;;16.42;11.40;;;;;;;18.27;66.13;101622.00;4996688;28;20481;-78
2023/07/06 09:34:35;;;;;;;15.85;10.88;;;;;;;17.55;67.86;101628.91;4998218;28;20080;-77
2023/07/06 09:37:02;;;;;;;17.58;10.73;;;;;;;18.11;67.53;101631.66;5001428;28;20022;-77
2023/07/06 09:39:27;;;;;;;16.70;9.68;;;;;;;19.56;62.33;101628.00;4985245;28;20053;-77
2023/07/06 09:41:53;;;;;;;16.33;10.00;;;;;;;20.45;59.13;101629.63;5005082;28;20030;-79
2023/07/06 09:44:31;;;;;;;17.08;9.55;;;;;;;20.18;59.71;101629.38;5006996;28;20036;-81
2023/07/06 09:46:58;;;;;;;16.45;9.93;;;;;;;19.94;61.19;101631.34;4985661;28;20042;-80
2023/07/06 09:49:37;;;;;;;18.23;10.20;;;;;;;20.56;60.07;101624.34;5007431;28;20461;-80
2023/07/06 09:52:05;;;;;;;17.08;10.68;;;;;;;20.84;58.49;101630.84;4988488;28;20104;-79
2023/07/06 09:55:07;;;;;;;27.05;14.07;;;;;;;19.80;61.03;101637.00;4987406;28;20045;-82
2023/07/06 09:57:34;;;;;;;15.02;10.52;;;;;;;21.18;56.65;101634.47;5002164;28;20037;-82
2023/07/06 10:00:00;;;;;;;15.15;11.07;;;;;;;21.77;55.67;101633.16;5003692;28;20126;-81
2023/07/06 10:03:08;;;;;;;15.48;10.68;;;;;;;22.65;52.34;101633.34;4986796;28;20050;-84
2023/07/06 10:06:14;;;;;;;12.43;9.65;;;;;;;21.88;54.91;101630.53;4987239;28;20118;-80
2023/07/06 10:08:47;;;;;;;14.47;9.67;;;;;;;22.04;54.00;101639.81;5019846;28;20050;-81
2023/07/06 10:11:21;;;;;;;13.88;8.85;;;;;;;22.30;52.76;101631.84;4988301;28;20304;-81
2023/07/06 10:14:20;;;;;;;13.32;9.10;;;;;;;22.46;53.64;101639.19;4982959;28;20033;-81
2023/07/06 10:17:18;;;;;;;15.32;9.95;;;;;;;21.76;55.70;101630.66;4987980;28;20470;-82
2023/07/06 10:19:49;;;;;;;12.13;7.95;;;;;;;23.08;51.25;101637.03;5002101;28;20031;-81
2023/07/06 10:22:52;;;;;;;15.70;9.82;;;;;;;21.95;54.57;101642.16;5005587;28;20053;-81
2023/07/06 10:25:24;;;;;;;11.25;9.30;;;;;;;21.84;54.34;101632.97;4932077;28;20574;-81
2023/07/06 10:27:57;;;;;;;10.90;7.88;;;;;;;23.28;49.96;101628.13;4963877;28;20041;-83
2023/07/06 10:30:26;;;;;;;10.77;8.52;;;;;;;24.36;47.78;101636.09;4971362;28;20109;-80
2023/07/06 10:32:53;;;;;;;14.00;9.25;;;;;;;24.66;46.27;101631.75;4986676;28;20060;-79
2023/07/06 10:35:25;;;;;;;12.57;8.57;;;;;;;23.71;48.91;101630.06;4986849;28;20163;-81
2023/07/06 10:37:51;;;;;;;9.95;7.30;;;;;;;24.48;48.59;101632.28;5002935;28;20505;-81
2023/07/06 10:40:19;;;;;;;10.07;7.60;;;;;;;25.67;44.88;101635.03;5004111;28;20033;-81
2023/07/06 10:42:52;;;;;;;11.90;8.05;;;;;;;25.58;44.00;101635.59;5005140;28;20030;-80
2023/07/06 10:45:32;;;;;;;11.23;7.75;;;;;;;25.44;44.39;101629.00;4986892;28;20037;-80
2023/07/06 10:48:21;;;;;;;9.05;6.57;;;;;;;26.54;41.76;101631.03;4999868;28;20092;-80
2023/07/06 10:51:12;;;;;;;12.80;7.90;;;;;;;26.45;41.24;101622.53;5007976;28;20385;-81
2023/07/06 10:53:41;;;;;;;9.13;6.30;;;;;;;26.61;42.01;101626.00;5016454;28;20137;-80
2023/07/06 10:56:17;;;;;;;9.70;6.63;;;;;;;27.02;39.44;101619.34;5011173;28;20033;-80
2023/07/06 10:58:55;;;;;;;11.02;6.72;;;;;;;26.47;41.04;101628.63;4969522;28;20034;-81
2023/07/06 11:01:22;;;;;;;10.30;6.38;;;;;;;26.35;40.13;101625.34;5006589;28;20479;-79
2023/07/06 11:03:47;;;;;;;9.70;6.70;;;;;;;26.01;41.40;101635.19;4972042;28;20669;-79
2023/07/06 11:06:17;;;;;;;10.13;6.70;;;;;;;26.34;41.36;101629.22;5025885;28;20027;-79
2023/07/06 11:09:10;;;;;;;9.23;5.50;;;;;;;26.21;39.64;101627.09;5045867;28;20030;-78
2023/07/06 11:11:35;;;;;;;9.48;4.97;;;;;;;25.94;39.89;101629.13;5007019;28;20497;-78
2023/07/06 11:14:35;;;;;;;8.93;5.25;;;;;;;25.46;42.40;101634.25;5023906;28;20121;-80
2023/07/06 11:17:02;;;;;;;8.23;5.00;;;;;;;26.48;39.49;101624.72;5006425;28;20036;-76
2023/07/06 11:19:31;;;;;;;8.63;4.88;;;;;;;26.40;39.31;101633.63;5027555;28;20032;-79
2023/07/06 11:22:02;;;;;;;9.80;5.10;;;;;;;26.73;38.22;101636.69;4992123;28;20041;-79
2023/07/06 11:24:29;;;;;;;8.13;5.38;;;;;;;26.93;38.55;101634.91;4990948;28;20046;-79
2023/07/06 11:27:01;;;;;;;9.43;4.95;;;;;;;25.33;40.08;101636.44;5002034;28;20042;-80
2023/07/06 11:29:30;;;;;;;11.13;5.90;;;;;;;25.32;42.18;101633.97;5000315;28;20026;-80